createdAt,value
2022-11-19T00:00:56.513Z,10.52
2022-11-19T00:05:51.517Z,13.07
2022-11-19T00:10:46.940Z,8.70
2022-11-19T00:15:41.481Z,20.70
2022-11-19T00:20:36.473Z,10.00
2022-11-19T00:25:32.189Z,10.45
2022-11-19T00:30:47.022Z,10.80
2022-11-19T00:35:40.113Z,7.88
2022-11-19T00:40:34.070Z,9.85
2022-11-19T00:45:27.020Z,14.07
2022-11-19T00:50:21.057Z,10.48
2022-11-19T00:55:14.779Z,12.05
2022-11-19T01:00:12.911Z,12.95
2022-11-19T01:05:08.694Z,13.43
2022-11-19T01:10:02.199Z,19.52
2022-11-19T01:14:55.476Z,16.38
2022-11-19T01:19:48.839Z,17.95
2022-11-19T01:24:42.950Z,20.33
2022-11-19T01:29:37.005Z,20.15
2022-11-19T01:34:31.609Z,13.75
2022-11-19T01:39:25.757Z,15.40
2022-11-19T01:44:59.538Z,17.42
2022-11-19T01:49:53.781Z,15.63
2022-11-19T01:54:50.994Z,16.50
2022-11-19T01:59:45.997Z,13.73
2022-11-19T02:04:40.494Z,9.77
2022-11-19T02:09:35.225Z,8.00
2022-11-19T02:15:04.909Z,10.30
2022-11-19T02:20:42.021Z,8.73
2022-11-19T02:25:50.801Z,9.75
2022-11-19T02:30:49.976Z,8.27
2022-11-19T02:35:47.393Z,7.93
2022-11-19T02:40:43.813Z,9.55
2022-11-19T02:45:41.243Z,8.18
2022-11-19T02:50:38.748Z,8.90
2022-11-19T02:55:32.142Z,9.85
2022-11-19T03:00:43.742Z,7.70
2022-11-19T03:05:40.526Z,15.00
2022-11-19T03:10:58.235Z,8.45
2022-11-19T03:16:10.050Z,8.82
2022-11-19T03:21:33.816Z,16.27
2022-11-19T03:26:38.047Z,7.47
2022-11-19T03:31:31.932Z,9.75
2022-11-19T03:36:28.419Z,7.57
2022-11-19T03:41:22.460Z,9.63
2022-11-19T03:46:17.425Z,10.13
2022-11-19T03:51:27.133Z,8.95
2022-11-19T03:56:23.406Z,8.27
2022-11-19T04:01:17.957Z,9.43
2022-11-19T04:06:11.827Z,13.68
2022-11-19T04:15:57.341Z,10.93
2022-11-19T04:20:52.772Z,11.60
2022-11-19T04:25:51.759Z,11.85
2022-11-19T04:30:45.899Z,12.00
2022-11-19T04:35:39.756Z,21.35
2022-11-19T04:40:33.069Z,14.10
2022-11-19T04:45:26.787Z,10.25
2022-11-19T04:50:20.711Z,11.40
2022-11-19T04:55:14.434Z,10.13
2022-11-19T05:00:09.945Z,11.20
2022-11-19T05:05:03.810Z,12.20
2022-11-19T05:09:57.432Z,11.45
2022-11-19T05:14:50.709Z,12.00
2022-11-19T05:19:43.652Z,7.53
2022-11-19T05:24:37.389Z,4.80
2022-11-19T05:29:31.010Z,5.20
2022-11-19T05:34:25.304Z,6.07
2022-11-19T05:39:22.068Z,6.93
2022-11-19T05:44:15.910Z,6.55
2022-11-19T05:49:09.856Z,6.78
2022-11-19T05:54:03.970Z,11.75
2022-11-19T05:58:57.515Z,8.27
2022-11-19T06:03:51.485Z,8.23
2022-11-19T06:08:45.089Z,10.23
2022-11-19T06:13:38.953Z,13.82
2022-11-19T06:18:33.008Z,11.65
2022-11-19T06:23:26.697Z,7.80
2022-11-19T06:28:20.720Z,7.13
2022-11-19T06:33:14.171Z,11.32
2022-11-19T06:38:08.154Z,9.65
2022-11-19T06:43:02.703Z,7.40
2022-11-19T06:47:56.266Z,9.80
2022-11-19T06:52:50.644Z,8.27
2022-11-19T06:57:45.049Z,7.50
2022-11-19T07:02:38.733Z,12.52
2022-11-19T07:07:33.117Z,10.32
2022-11-19T07:12:27.969Z,9.20
2022-11-19T07:17:21.553Z,8.52
2022-11-19T07:22:15.593Z,7.57
2022-11-19T07:27:09.871Z,7.63
2022-11-19T07:32:08.023Z,8.65
2022-11-19T07:37:01.730Z,9.30
2022-11-19T07:42:13.017Z,8.30
2022-11-19T07:47:08.738Z,8.65
2022-11-19T07:52:02.973Z,13.68
2022-11-19T07:56:57.488Z,7.57
2022-11-19T08:01:52.058Z,10.15
2022-11-19T08:06:46.896Z,9.23
2022-11-19T08:11:41.193Z,10.10
2022-11-19T08:16:53.711Z,13.88
2022-11-19T08:21:48.834Z,27.52
2022-11-19T08:26:42.850Z,49.25
2022-11-19T08:31:36.871Z,45.00
2022-11-19T08:36:30.509Z,51.03
2022-11-19T08:41:42.509Z,67.63
2022-11-19T08:46:35.377Z,55.38
2022-11-19T08:51:29.773Z,64.75
2022-11-19T08:56:25.103Z,63.60
2022-11-19T09:01:18.848Z,57.08
2022-11-19T09:06:13.022Z,60.15
2022-11-19T09:11:32.616Z,65.28
2022-11-19T09:16:30.684Z,67.47
2022-11-19T09:21:24.942Z,98.78
2022-11-19T09:26:19.774Z,68.60
2022-11-19T09:31:19.494Z,66.05
2022-11-19T09:36:14.717Z,53.80
2022-11-19T09:41:33.853Z,46.15
2022-11-19T09:46:31.597Z,46.35
2022-11-19T09:51:30.392Z,29.23
2022-11-19T10:01:37.936Z,19.63
2022-11-19T10:06:50.887Z,16.45
2022-11-19T10:12:25.133Z,14.98
2022-11-19T10:17:39.044Z,10.57
2022-11-19T10:22:57.127Z,13.38
2022-11-19T10:28:08.713Z,11.13
2022-11-19T10:33:37.905Z,10.57
2022-11-19T10:38:57.325Z,17.50
2022-11-19T10:43:50.585Z,13.65
2022-11-19T10:48:47.354Z,15.93
2022-11-19T10:54:03.523Z,65.72
2022-11-19T10:59:20.819Z,69.38
2022-11-19T11:04:21.584Z,39.28
2022-11-19T11:09:37.719Z,15.80
2022-11-19T11:15:11.152Z,20.63
2022-11-19T11:20:21.749Z,18.63
2022-11-19T11:25:26.850Z,17.70
2022-11-19T11:30:20.961Z,24.20
2022-11-19T11:35:36.565Z,22.90
2022-11-19T11:40:30.716Z,16.75
2022-11-19T11:45:49.266Z,21.63
2022-11-19T11:51:22.556Z,23.08
2022-11-19T11:56:41.295Z,32.33
2022-11-19T12:02:14.075Z,31.75
2022-11-19T12:07:19.458Z,31.90
2022-11-19T12:12:53.750Z,20.42
2022-11-19T12:18:22.874Z,22.63
2022-11-19T12:23:45.045Z,25.40
2022-11-19T12:28:57.019Z,27.33
2022-11-19T12:34:00.866Z,21.77
2022-11-19T12:39:02.987Z,27.02
2022-11-19T12:44:00.978Z,22.20
2022-11-19T12:49:18.612Z,24.20
2022-11-19T12:54:15.781Z,28.67
2022-11-19T12:59:25.773Z,24.83
2022-11-19T13:05:11.387Z,29.77
2022-11-19T13:10:13.241Z,35.92
2022-11-19T13:15:20.217Z,69.07
2022-11-19T13:20:36.239Z,31.70
2022-11-19T13:25:49.453Z,30.70
2022-11-19T13:31:03.517Z,27.05
2022-11-19T13:36:18.245Z,26.67
2022-11-19T13:41:59.524Z,28.42
2022-11-19T13:46:59.505Z,29.55
2022-11-19T13:52:04.340Z,32.45
2022-11-19T13:57:43.263Z,29.80
2022-11-19T14:03:13.781Z,39.05
2022-11-19T14:08:31.585Z,32.35
2022-11-19T14:13:43.239Z,58.53
2022-11-19T14:19:07.165Z,36.08
2022-11-19T14:24:48.177Z,29.60
2022-11-19T14:29:47.664Z,37.83
2022-11-19T14:35:06.596Z,36.03
2022-11-19T14:40:22.764Z,45.42
2022-11-19T14:45:25.488Z,41.95
2022-11-19T14:50:30.455Z,49.25
2022-11-19T14:55:36.136Z,40.33
2022-11-19T15:00:31.750Z,40.33
2022-11-19T15:05:51.806Z,51.22
2022-11-19T15:11:10.846Z,41.65
2022-11-19T15:16:14.659Z,41.92
2022-11-19T15:21:33.461Z,50.20
2022-11-19T15:26:43.732Z,41.55
2022-11-19T15:31:48.530Z,45.15
2022-11-19T15:36:47.768Z,53.30
2022-11-19T15:42:00.937Z,57.45
2022-11-19T15:46:59.001Z,58.38
2022-11-19T15:52:16.130Z,63.80
2022-11-19T15:57:22.648Z,61.10
2022-11-19T16:02:20.829Z,62.85
2022-11-19T16:07:14.440Z,67.63
2022-11-19T16:12:26.777Z,52.08
2022-11-19T16:17:43.434Z,50.90
2022-11-19T16:22:55.865Z,51.90
2022-11-19T16:27:49.399Z,48.25
2022-11-19T16:32:43.657Z,49.35
2022-11-19T16:37:38.188Z,44.80
2022-11-19T16:42:33.435Z,46.65
2022-11-19T16:47:38.403Z,49.17
2022-11-19T16:52:35.318Z,42.17
2022-11-19T16:57:30.827Z,47.38
2022-11-19T17:02:29.713Z,49.78
2022-11-19T17:13:00.733Z,46.95
2022-11-19T17:18:05.450Z,50.15
2022-11-19T17:23:04.335Z,59.38
2022-11-19T17:27:58.926Z,55.58
2022-11-19T17:33:03.609Z,133.90
2022-11-19T17:37:59.870Z,217.38
2022-11-19T17:43:12.160Z,119.15
2022-11-19T17:48:19.967Z,111.82
2022-11-19T17:53:13.765Z,140.75
2022-11-19T17:58:07.978Z,103.03
2022-11-19T18:03:03.338Z,62.35
2022-11-19T18:07:57.823Z,46.17
2022-11-19T18:12:50.958Z,58.65
2022-11-19T18:17:44.994Z,45.53
2022-11-19T18:22:38.902Z,64.32
2022-11-19T18:27:33.077Z,47.40
2022-11-19T18:32:26.973Z,51.35
2022-11-19T18:37:21.262Z,48.42
2022-11-19T18:42:15.455Z,57.80
2022-11-19T18:47:11.920Z,47.97
2022-11-19T18:52:08.688Z,45.00
2022-11-19T18:57:02.928Z,41.78
2022-11-19T19:01:56.518Z,42.17
2022-11-19T19:06:50.075Z,45.13
2022-11-19T19:12:02.516Z,41.92
2022-11-19T19:16:56.185Z,36.03
2022-11-19T19:21:49.655Z,44.08
2022-11-19T19:26:42.790Z,42.13
2022-11-19T19:31:37.339Z,45.95
2022-11-19T19:36:31.901Z,46.97
2022-11-19T19:41:27.566Z,51.22
2022-11-19T19:46:22.344Z,67.45
2022-11-19T19:51:17.281Z,46.50
2022-11-19T19:56:19.799Z,51.97
2022-11-19T20:01:17.698Z,74.22
2022-11-19T20:06:13.311Z,69.45
2022-11-19T20:11:10.406Z,46.60
2022-11-19T20:16:18.873Z,62.72
2022-11-19T20:21:17.474Z,40.05
2022-11-19T20:26:16.655Z,41.93
2022-11-19T20:31:18.615Z,35.47
2022-11-19T20:36:13.857Z,41.92
2022-11-19T20:41:29.618Z,36.47
2022-11-19T20:46:23.399Z,42.15
2022-11-19T20:51:17.079Z,54.78
2022-11-19T20:56:09.917Z,51.33
2022-11-19T21:01:31.260Z,70.50
2022-11-19T21:06:25.361Z,64.93
2022-11-19T21:11:19.970Z,41.60
2022-11-19T21:16:15.028Z,38.92
2022-11-19T21:21:09.741Z,38.25
2022-11-19T21:26:10.254Z,42.63
2022-11-19T21:31:04.153Z,43.83
2022-11-19T21:35:59.550Z,41.25
2022-11-19T21:40:54.303Z,60.35
2022-11-19T21:45:49.055Z,42.20
2022-11-19T21:50:42.608Z,50.47
2022-11-19T21:55:37.171Z,40.08
2022-11-19T22:00:31.207Z,40.60
2022-11-19T22:05:25.974Z,38.28
2022-11-19T22:10:19.278Z,44.70
2022-11-19T22:15:13.887Z,42.97
2022-11-19T22:20:07.544Z,43.80
2022-11-19T22:25:01.198Z,45.42
2022-11-19T22:29:56.744Z,44.15
2022-11-19T22:34:50.255Z,44.67
2022-11-19T22:39:44.712Z,41.97
2022-11-19T22:44:38.674Z,45.40
2022-11-19T22:49:34.970Z,49.80
2022-11-19T22:54:29.430Z,47.72
2022-11-19T22:59:23.722Z,44.60
2022-11-19T23:04:17.106Z,40.60
2022-11-19T23:09:09.799Z,48.08
2022-11-19T23:14:03.830Z,46.63
2022-11-19T23:18:58.131Z,46.28
2022-11-19T23:23:52.304Z,41.55
2022-11-19T23:28:46.203Z,37.05
2022-11-19T23:33:40.044Z,43.03
2022-11-19T23:38:35.193Z,46.72
2022-11-19T23:43:29.779Z,37.67
2022-11-19T23:48:23.872Z,32.22
2022-11-19T23:53:17.517Z,29.45
2022-11-19T23:58:11.547Z,35.13
